createdAt,value
2022-12-25T00:01:32.279Z,1.10
2022-12-25T00:03:59.761Z,1.30
2022-12-25T00:06:27.315Z,1.10
2022-12-25T00:08:54.428Z,2.23
2022-12-25T00:11:21.725Z,2.70
2022-12-25T00:13:49.390Z,1.77
2022-12-25T00:16:20.131Z,1.57
2022-12-25T00:18:48.185Z,1.73
2022-12-25T00:21:15.976Z,1.30
2022-12-25T00:23:43.654Z,1.13
2022-12-25T00:26:18.028Z,0.90
2022-12-25T00:28:45.476Z,1.10
2022-12-25T00:31:15.889Z,1.27
2022-12-25T00:33:44.596Z,1.40
2022-12-25T00:36:14.224Z,1.20
2022-12-25T00:38:42.203Z,1.20
2022-12-25T00:41:11.828Z,1.30
2022-12-25T00:43:39.142Z,2.40
2022-12-25T00:46:07.341Z,1.27
2022-12-25T00:48:35.988Z,1.10
2022-12-25T00:51:06.153Z,1.50
2022-12-25T00:53:33.768Z,1.50
2022-12-25T00:56:03.963Z,0.90
2022-12-25T00:58:33.037Z,1.27
2022-12-25T01:01:00.409Z,0.90
2022-12-25T01:03:28.360Z,1.07
2022-12-25T01:05:58.255Z,0.97
2022-12-25T01:08:25.830Z,0.80
2022-12-25T01:11:05.019Z,1.20
2022-12-25T01:13:34.967Z,0.90
2022-12-25T01:16:10.315Z,1.07
2022-12-25T01:18:38.195Z,0.97
2022-12-25T01:21:10.133Z,1.00
2022-12-25T01:23:37.592Z,1.10
2022-12-25T01:26:09.565Z,1.20
2022-12-25T01:28:38.065Z,1.13
2022-12-25T01:31:05.788Z,1.13
2022-12-25T01:33:32.920Z,1.13
2022-12-25T01:36:00.225Z,1.43
2022-12-25T01:38:27.352Z,1.37
2022-12-25T01:40:54.992Z,1.30
2022-12-25T01:43:28.859Z,1.00
2022-12-25T01:45:56.244Z,1.30
2022-12-25T01:48:37.101Z,1.33
2022-12-25T01:51:09.808Z,1.43
2022-12-25T01:53:37.179Z,1.00
2022-12-25T01:56:07.144Z,1.63
2022-12-25T01:58:34.987Z,1.63
2022-12-25T02:01:02.203Z,2.30
2022-12-25T02:03:29.525Z,1.40
2022-12-25T02:05:56.872Z,1.20
2022-12-25T02:08:24.354Z,1.40
2022-12-25T02:10:51.455Z,1.27
2022-12-25T02:13:20.331Z,1.10
2022-12-25T02:15:47.390Z,1.07
2022-12-25T02:18:33.004Z,1.10
2022-12-25T02:21:30.284Z,1.00
2022-12-25T02:24:21.838Z,1.30
2022-12-25T02:26:48.904Z,1.30
2022-12-25T02:29:19.083Z,1.00
2022-12-25T02:31:59.433Z,1.10
2022-12-25T02:34:44.244Z,0.90
2022-12-25T02:37:27.540Z,1.00
2022-12-25T02:40:06.123Z,0.77
2022-12-25T02:43:04.114Z,0.83
2022-12-25T02:45:52.788Z,0.80
2022-12-25T02:48:41.929Z,1.13
2022-12-25T02:51:31.515Z,0.90
2022-12-25T02:54:36.873Z,1.00
2022-12-25T02:57:27.358Z,0.90
2022-12-25T03:00:16.885Z,1.10
2022-12-25T03:03:04.395Z,0.90
2022-12-25T03:05:52.885Z,0.80
2022-12-25T03:08:24.779Z,0.90
2022-12-25T03:11:27.719Z,0.90
2022-12-25T03:14:24.920Z,1.00
2022-12-25T03:16:56.488Z,0.87
2022-12-25T03:19:48.630Z,1.10
2022-12-25T03:22:50.651Z,1.23
2022-12-25T03:25:37.918Z,1.03
2022-12-25T03:28:06.383Z,0.80
2022-12-25T03:31:05.160Z,0.90
2022-12-25T03:34:03.739Z,1.30
2022-12-25T03:37:08.472Z,0.80
2022-12-25T03:40:18.556Z,0.77
2022-12-25T03:43:12.122Z,0.87
2022-12-25T03:46:04.699Z,0.80
2022-12-25T03:48:54.777Z,0.70
2022-12-25T03:51:48.284Z,0.90
2022-12-25T03:54:36.746Z,1.10
2022-12-25T03:57:22.925Z,1.00
2022-12-25T04:00:08.667Z,0.70
2022-12-25T04:02:55.336Z,0.80
2022-12-25T04:05:45.955Z,1.17
2022-12-25T04:08:31.927Z,0.80
2022-12-25T04:11:31.368Z,0.77
2022-12-25T04:14:17.330Z,0.80
2022-12-25T04:17:02.826Z,0.70
2022-12-25T04:19:48.520Z,1.10
2022-12-25T04:22:33.992Z,0.70
2022-12-25T04:25:19.591Z,1.30
2022-12-25T04:28:05.248Z,0.90
2022-12-25T04:30:50.812Z,0.90
2022-12-25T04:33:36.499Z,0.80
2022-12-25T04:36:09.550Z,1.00
2022-12-25T04:38:37.429Z,0.90
2022-12-25T04:41:05.011Z,0.80
2022-12-25T04:43:32.309Z,0.73
2022-12-25T04:46:01.064Z,1.37
2022-12-25T04:48:30.478Z,0.80
2022-12-25T04:50:57.699Z,0.93
2022-12-25T04:53:24.939Z,0.80
2022-12-25T04:56:01.476Z,0.80
2022-12-25T04:58:28.653Z,1.00
2022-12-25T05:00:59.801Z,0.77
2022-12-25T05:03:27.402Z,0.87
2022-12-25T05:05:54.712Z,0.93
2022-12-25T05:08:22.205Z,0.70
2022-12-25T05:10:49.555Z,0.93
2022-12-25T05:13:17.100Z,1.00
2022-12-25T05:15:44.417Z,0.90
2022-12-25T05:18:11.671Z,0.63
2022-12-25T05:20:40.390Z,0.90
2022-12-25T05:23:12.257Z,0.83
2022-12-25T05:25:40.818Z,0.90
2022-12-25T05:28:08.023Z,0.90
2022-12-25T05:30:35.420Z,0.70
2022-12-25T05:33:03.251Z,1.10
2022-12-25T05:35:30.467Z,1.00
2022-12-25T05:37:57.837Z,0.80
2022-12-25T05:40:24.969Z,1.37
2022-12-25T05:42:52.126Z,0.70
2022-12-25T05:45:19.373Z,0.57
2022-12-25T05:47:46.551Z,0.80
2022-12-25T05:50:13.708Z,0.70
2022-12-25T05:52:40.835Z,0.80
2022-12-25T05:55:08.507Z,0.97
2022-12-25T05:57:35.962Z,1.00
2022-12-25T06:00:04.849Z,0.60
2022-12-25T06:02:32.108Z,0.80
2022-12-25T06:04:59.344Z,0.77
2022-12-25T06:07:26.473Z,1.10
2022-12-25T06:09:53.649Z,0.70
2022-12-25T06:12:20.896Z,0.80
2022-12-25T06:14:48.043Z,0.80
2022-12-25T06:17:15.189Z,0.70
2022-12-25T06:19:43.106Z,0.70
2022-12-25T06:22:10.227Z,0.90
2022-12-25T06:24:37.426Z,1.67
2022-12-25T06:27:04.557Z,2.60
2022-12-25T06:29:31.719Z,3.23
2022-12-25T06:31:58.995Z,2.10
2022-12-25T06:34:27.158Z,5.17
2022-12-25T06:36:54.367Z,7.03
2022-12-25T06:39:21.501Z,5.90
2022-12-25T06:41:48.727Z,2.60
2022-12-25T06:44:15.931Z,2.50
2022-12-25T06:46:43.066Z,1.80
2022-12-25T06:49:10.515Z,1.53
2022-12-25T06:51:37.765Z,3.50
2022-12-25T06:54:06.002Z,4.27
2022-12-25T06:56:34.097Z,3.90
2022-12-25T06:59:07.212Z,3.60
2022-12-25T07:01:50.021Z,2.70
2022-12-25T07:04:19.588Z,3.20
2022-12-25T07:06:47.076Z,2.57
2022-12-25T07:09:14.291Z,2.80
2022-12-25T07:11:41.485Z,3.33
2022-12-25T07:14:23.532Z,3.20
2022-12-25T07:16:51.753Z,2.43
2022-12-25T07:19:19.421Z,2.53
2022-12-25T07:21:47.389Z,1.60
2022-12-25T07:24:21.674Z,1.07
2022-12-25T07:26:49.916Z,2.03
2022-12-25T07:29:17.722Z,1.57
2022-12-25T07:31:45.265Z,2.13
2022-12-25T07:34:12.546Z,1.57
2022-12-25T07:36:39.808Z,1.27
2022-12-25T07:39:06.963Z,1.73
2022-12-25T07:41:34.306Z,1.40
2022-12-25T07:44:01.947Z,1.23
2022-12-25T07:46:29.478Z,1.60
2022-12-25T07:48:56.957Z,1.13
2022-12-25T07:51:24.319Z,1.70
2022-12-25T07:53:51.482Z,1.30
2022-12-25T07:56:20.289Z,1.47
2022-12-25T07:58:48.740Z,1.47
2022-12-25T08:01:21.838Z,1.00
2022-12-25T08:04:10.437Z,1.00
2022-12-25T08:06:38.219Z,1.17
2022-12-25T08:09:10.839Z,1.30
2022-12-25T08:11:38.617Z,2.00
2022-12-25T08:14:07.611Z,1.17
2022-12-25T08:16:35.441Z,1.03
2022-12-25T08:19:02.850Z,0.90
2022-12-25T08:21:29.965Z,1.37
2022-12-25T08:23:57.298Z,1.07
2022-12-25T08:26:24.777Z,0.90
2022-12-25T08:28:52.301Z,0.93
2022-12-25T08:31:23.669Z,1.13
2022-12-25T08:33:53.148Z,0.90
2022-12-25T08:36:21.186Z,1.33
2022-12-25T08:38:48.598Z,1.20
2022-12-25T08:41:16.405Z,1.30
2022-12-25T08:43:43.695Z,1.17
2022-12-25T08:46:11.562Z,1.40
2022-12-25T08:48:41.363Z,1.20
2022-12-25T08:51:14.953Z,1.27
2022-12-25T08:53:43.251Z,1.03
2022-12-25T08:56:11.168Z,1.07
2022-12-25T08:58:38.749Z,1.30
2022-12-25T09:01:06.753Z,2.13
2022-12-25T09:03:34.519Z,2.10
2022-12-25T09:06:04.578Z,2.00
2022-12-25T09:08:31.756Z,1.60
2022-12-25T09:11:07.632Z,2.37
2022-12-25T09:13:35.578Z,2.43
2022-12-25T09:16:11.083Z,4.10
2022-12-25T09:18:38.690Z,4.50
2022-12-25T09:21:08.392Z,6.27
2022-12-25T09:23:35.603Z,7.13
2022-12-25T09:26:04.839Z,8.90
2022-12-25T09:28:32.345Z,9.20
2022-12-25T09:31:00.166Z,9.80
2022-12-25T09:33:27.794Z,7.97
2022-12-25T09:35:57.219Z,5.73
2022-12-25T09:38:25.002Z,5.87
2022-12-25T09:41:11.739Z,4.20
2022-12-25T09:44:01.598Z,3.60
2022-12-25T09:46:38.522Z,4.33
2022-12-25T09:49:20.538Z,5.43
2022-12-25T09:51:53.315Z,4.40
2022-12-25T09:54:27.614Z,5.30
2022-12-25T09:56:54.791Z,6.07
2022-12-25T09:59:26.323Z,4.53
2022-12-25T10:02:02.533Z,5.73
2022-12-25T10:04:49.069Z,4.90
2022-12-25T10:07:35.869Z,5.07
2022-12-25T10:10:06.063Z,4.67
2022-12-25T10:12:59.641Z,5.27
2022-12-25T10:15:33.189Z,3.43
2022-12-25T10:18:27.613Z,3.43
2022-12-25T10:20:57.501Z,4.73
2022-12-25T10:23:39.004Z,4.27
2022-12-25T10:26:19.673Z,4.20
2022-12-25T10:29:08.347Z,3.90
2022-12-25T10:31:37.351Z,4.10
2022-12-25T10:34:05.988Z,3.53
2022-12-25T10:36:33.784Z,3.57
2022-12-25T10:39:01.163Z,3.17
2022-12-25T10:41:52.357Z,2.70
2022-12-25T10:44:21.903Z,3.37
2022-12-25T10:46:54.922Z,2.53
2022-12-25T10:49:25.768Z,2.50
2022-12-25T10:51:52.962Z,2.50
2022-12-25T10:54:33.492Z,2.30
2022-12-25T10:57:03.442Z,1.90
2022-12-25T10:59:42.898Z,2.20
2022-12-25T11:02:13.141Z,1.73
2022-12-25T11:04:40.586Z,2.03
2022-12-25T11:07:19.810Z,2.03
2022-12-25T11:09:57.789Z,1.73
2022-12-25T11:12:35.277Z,1.40
2022-12-25T11:15:27.448Z,2.77
2022-12-25T11:17:54.620Z,2.30
2022-12-25T11:20:22.672Z,1.83
2022-12-25T11:22:50.754Z,1.90
2022-12-25T11:25:26.743Z,1.57
2022-12-25T11:28:02.643Z,1.57
2022-12-25T11:30:32.649Z,2.00
2022-12-25T11:33:06.840Z,1.67
2022-12-25T11:35:46.778Z,2.13
2022-12-25T11:38:14.123Z,1.77
2022-12-25T11:40:44.616Z,1.57
2022-12-25T11:43:20.575Z,1.70
2022-12-25T11:46:01.319Z,1.90
2022-12-25T11:48:41.016Z,1.90
2022-12-25T11:51:09.993Z,1.50
2022-12-25T11:54:04.234Z,1.80
2022-12-25T11:56:31.781Z,1.30
2022-12-25T11:59:29.200Z,2.40
2022-12-25T12:02:01.904Z,1.10
2022-12-25T12:04:42.718Z,0.90
2022-12-25T12:07:27.521Z,1.10
2022-12-25T12:10:20.278Z,1.40
2022-12-25T12:13:05.919Z,1.73
2022-12-25T12:15:43.761Z,1.40
2022-12-25T12:18:26.097Z,1.10
2022-12-25T12:21:17.788Z,1.33
2022-12-25T12:24:06.754Z,1.07
2022-12-25T12:26:40.998Z,1.20
2022-12-25T12:29:38.912Z,1.23
2022-12-25T12:32:20.437Z,1.63
2022-12-25T12:34:50.633Z,1.50
2022-12-25T12:37:29.456Z,1.17
2022-12-25T12:39:57.201Z,1.17
2022-12-25T12:42:34.729Z,1.10
2022-12-25T12:45:45.292Z,1.30
2022-12-25T12:48:17.144Z,0.90
2022-12-25T12:50:44.436Z,1.20
2022-12-25T12:53:23.694Z,1.30
2022-12-25T12:55:52.422Z,1.63
2022-12-25T12:58:33.173Z,1.20
2022-12-25T13:01:18.573Z,1.10
2022-12-25T13:04:07.482Z,0.80
2022-12-25T13:06:43.782Z,0.80
2022-12-25T13:09:50.008Z,1.37
2022-12-25T13:12:17.890Z,1.23
2022-12-25T13:14:47.206Z,1.73
2022-12-25T13:17:19.986Z,1.30
2022-12-25T13:19:51.169Z,1.50
2022-12-25T13:22:29.980Z,1.43
2022-12-25T13:24:59.519Z,1.20
2022-12-25T13:27:29.966Z,1.27
2022-12-25T13:29:57.966Z,2.13
2022-12-25T13:32:33.607Z,1.80
2022-12-25T13:35:01.274Z,2.63
2022-12-25T13:37:31.136Z,2.93
2022-12-25T13:40:01.246Z,3.90
2022-12-25T13:42:39.943Z,2.80
2022-12-25T13:45:21.762Z,2.10
2022-12-25T13:47:55.250Z,1.80
2022-12-25T13:50:34.834Z,1.90
2022-12-25T13:53:13.746Z,1.73
2022-12-25T13:55:43.998Z,1.90
2022-12-25T13:58:21.005Z,1.73
2022-12-25T14:00:52.577Z,2.10
2022-12-25T14:03:23.897Z,2.20
2022-12-25T14:06:01.121Z,2.23
2022-12-25T14:08:32.178Z,2.10
2022-12-25T14:11:03.895Z,1.87
2022-12-25T14:13:33.369Z,1.50
2022-12-25T14:16:01.649Z,1.77
2022-12-25T14:18:29.933Z,1.20
2022-12-25T14:21:14.628Z,1.80
2022-12-25T14:23:48.778Z,1.93
2022-12-25T14:26:31.290Z,1.60
2022-12-25T14:29:17.265Z,1.50
2022-12-25T14:31:47.060Z,1.70
2022-12-25T14:34:20.551Z,1.63
2022-12-25T14:36:49.193Z,1.70
2022-12-25T14:39:35.330Z,2.10
2022-12-25T14:42:13.587Z,2.77
2022-12-25T14:44:41.320Z,2.70
2022-12-25T14:47:11.617Z,2.53
2022-12-25T14:49:39.304Z,2.70
2022-12-25T14:52:56.506Z,2.17
2022-12-25T14:55:29.756Z,2.50
2022-12-25T14:58:07.762Z,1.83
2022-12-25T15:00:39.238Z,2.93
2022-12-25T15:03:25.917Z,2.43
2022-12-25T15:06:03.331Z,2.70
2022-12-25T15:08:32.451Z,2.50
2022-12-25T15:11:02.480Z,2.90
2022-12-25T15:13:31.212Z,3.70
2022-12-25T15:16:04.324Z,2.83
2022-12-25T15:18:37.432Z,2.40
2022-12-25T15:21:04.845Z,2.33
2022-12-25T15:23:32.028Z,1.83
2022-12-25T15:25:59.286Z,1.93
2022-12-25T15:28:26.417Z,2.30
2022-12-25T15:30:53.603Z,1.83
2022-12-25T15:33:20.792Z,1.83
2022-12-25T15:35:48.920Z,1.90
2022-12-25T15:38:16.162Z,1.87
2022-12-25T15:40:43.465Z,2.00
2022-12-25T15:43:39.488Z,1.27
2022-12-25T15:46:01.667Z,2.30
2022-12-25T15:48:28.820Z,2.60
2022-12-25T15:50:55.949Z,2.60
2022-12-25T15:53:23.141Z,2.30
2022-12-25T15:55:50.360Z,2.27
2022-12-25T15:58:17.544Z,2.13
2022-12-25T16:00:44.654Z,2.00
2022-12-25T16:03:11.970Z,2.33
2022-12-25T16:05:39.386Z,2.53
2022-12-25T16:08:06.511Z,3.20
2022-12-25T16:10:38.631Z,2.77
2022-12-25T16:13:06.345Z,2.00
2022-12-25T16:15:33.587Z,2.70
2022-12-25T16:18:00.762Z,2.27
2022-12-25T16:20:27.997Z,2.70
2022-12-25T16:22:55.213Z,2.43
2022-12-25T16:25:22.523Z,3.53
2022-12-25T16:27:49.907Z,2.33
2022-12-25T16:30:18.501Z,2.90
2022-12-25T16:32:49.802Z,3.67
2022-12-25T16:35:17.928Z,2.93
2022-12-25T16:37:45.263Z,2.87
2022-12-25T16:40:12.516Z,2.60
2022-12-25T16:42:39.872Z,2.97
2022-12-25T16:45:07.502Z,3.70
2022-12-25T16:47:35.025Z,3.30
2022-12-25T16:50:03.819Z,3.30
2022-12-25T16:52:31.750Z,3.00
2022-12-25T16:54:59.188Z,3.20
2022-12-25T16:57:26.667Z,3.80
2022-12-25T16:59:54.171Z,2.37
2022-12-25T17:02:22.097Z,2.30
2022-12-25T17:04:49.352Z,2.73
2022-12-25T17:07:17.376Z,2.60
2022-12-25T17:09:48.384Z,2.20
2022-12-25T17:12:16.199Z,3.00
2022-12-25T17:14:43.614Z,2.57
2022-12-25T17:17:10.832Z,2.70
2022-12-25T17:19:38.165Z,2.30
2022-12-25T17:22:05.317Z,2.47
2022-12-25T17:24:34.983Z,2.80
2022-12-25T17:27:02.434Z,3.43
2022-12-25T17:29:31.898Z,3.47
2022-12-25T17:31:59.115Z,3.50
2022-12-25T17:34:26.337Z,4.90
2022-12-25T17:36:54.441Z,4.07
2022-12-25T17:39:21.692Z,3.63
2022-12-25T17:41:52.997Z,3.60
2022-12-25T17:44:23.303Z,2.90
2022-12-25T17:46:51.126Z,2.57
2022-12-25T17:49:21.037Z,3.10
2022-12-25T17:51:48.905Z,2.40
2022-12-25T17:54:16.077Z,2.00
2022-12-25T17:56:43.271Z,2.83
2022-12-25T17:59:18.241Z,2.70
2022-12-25T18:01:46.962Z,8.30
2022-12-25T18:04:14.699Z,3.63
2022-12-25T18:06:41.916Z,2.40
2022-12-25T18:09:11.170Z,3.10
2022-12-25T18:11:43.711Z,2.30
2022-12-25T18:14:15.278Z,3.23
2022-12-25T18:16:44.817Z,3.27
2022-12-25T18:19:14.365Z,3.63
2022-12-25T18:21:41.683Z,3.33
2022-12-25T18:24:09.262Z,2.70
2022-12-25T18:26:36.717Z,2.60
2022-12-25T18:29:04.491Z,2.87
2022-12-25T18:31:31.790Z,2.77
2022-12-25T18:34:00.395Z,2.83
2022-12-25T18:36:28.715Z,3.03
2022-12-25T18:38:56.912Z,2.20
2022-12-25T18:41:24.564Z,2.60
2022-12-25T18:43:55.584Z,2.30
2022-12-25T18:46:25.506Z,2.37
2022-12-25T18:48:56.936Z,1.90
2022-12-25T18:51:26.618Z,2.63
2022-12-25T18:53:57.366Z,3.10
2022-12-25T18:56:24.600Z,3.03
2022-12-25T18:58:51.749Z,3.07
2022-12-25T19:01:21.639Z,3.40
2022-12-25T19:03:50.694Z,5.10
2022-12-25T19:06:23.599Z,4.83
2022-12-25T19:08:51.386Z,4.70
2022-12-25T19:11:19.358Z,2.60
2022-12-25T19:13:47.219Z,2.97
2022-12-25T19:16:15.503Z,2.53
2022-12-25T19:18:43.714Z,1.93
2022-12-25T19:21:10.993Z,2.10
2022-12-25T19:23:38.370Z,2.50
2022-12-25T19:26:08.011Z,2.57
2022-12-25T19:28:36.548Z,2.63
2022-12-25T19:31:07.497Z,3.27
2022-12-25T19:33:36.773Z,2.40
2022-12-25T19:36:09.740Z,2.00
2022-12-25T19:38:37.755Z,2.40
2022-12-25T19:41:15.332Z,2.13
2022-12-25T19:43:47.895Z,1.97
2022-12-25T19:46:18.833Z,3.30
2022-12-25T19:48:46.386Z,3.00
2022-12-25T19:51:22.417Z,1.70
2022-12-25T19:53:50.150Z,3.03
2022-12-25T19:56:18.270Z,2.03
2022-12-25T19:58:45.785Z,3.40
2022-12-25T20:01:16.444Z,2.47
2022-12-25T20:03:47.355Z,2.00
2022-12-25T20:06:29.399Z,2.60
2022-12-25T20:09:03.224Z,2.00
2022-12-25T20:11:32.324Z,2.53
2022-12-25T20:13:59.583Z,2.63
2022-12-25T20:16:26.835Z,2.63
2022-12-25T20:18:54.035Z,2.97
2022-12-25T20:21:23.380Z,2.80
2022-12-25T20:23:52.245Z,2.33
2022-12-25T20:26:21.791Z,2.60
2022-12-25T20:28:49.609Z,2.43
2022-12-25T20:31:24.119Z,2.37
2022-12-25T20:33:51.328Z,2.87
2022-12-25T20:36:18.989Z,2.27
2022-12-25T20:38:46.444Z,2.90
2022-12-25T20:41:31.947Z,1.70
2022-12-25T20:43:59.159Z,2.57
2022-12-25T20:46:27.558Z,2.27
2022-12-25T20:48:54.949Z,3.50
2022-12-25T20:51:24.420Z,3.17
2022-12-25T20:53:51.902Z,3.60
2022-12-25T20:56:21.009Z,2.23
2022-12-25T20:58:48.167Z,2.40
2022-12-25T21:01:18.023Z,2.57
2022-12-25T21:03:45.828Z,2.70
2022-12-25T21:06:13.242Z,1.87
2022-12-25T21:08:43.736Z,1.73
2022-12-25T21:11:11.354Z,2.50
2022-12-25T21:13:40.925Z,2.43
2022-12-25T21:16:10.964Z,2.67
2022-12-25T21:18:38.825Z,2.63
2022-12-25T21:21:07.756Z,2.70
2022-12-25T21:23:37.240Z,3.93
2022-12-25T21:26:10.452Z,3.30
2022-12-25T21:28:37.668Z,2.90
2022-12-25T21:31:06.180Z,2.77
2022-12-25T21:33:51.423Z,3.50
2022-12-25T21:36:29.543Z,4.27
2022-12-25T21:39:06.312Z,3.60
2022-12-25T21:41:35.500Z,3.03
2022-12-25T21:44:02.776Z,3.37
2022-12-25T21:46:30.098Z,3.67
2022-12-25T21:48:58.324Z,3.27
2022-12-25T21:51:49.591Z,2.90
2022-12-25T21:54:18.393Z,2.47
2022-12-25T21:56:47.277Z,1.83
2022-12-25T21:59:17.551Z,2.23
2022-12-25T22:01:45.654Z,1.60
2022-12-25T22:04:15.410Z,2.27
2022-12-25T22:07:01.555Z,3.73
2022-12-25T22:09:28.864Z,2.17
2022-12-25T22:12:14.455Z,2.90
2022-12-25T22:14:54.861Z,3.47
2022-12-25T22:17:46.977Z,3.00
2022-12-25T22:20:26.768Z,2.27
2022-12-25T22:22:54.491Z,3.10
2022-12-25T22:25:22.508Z,2.37
2022-12-25T22:27:50.575Z,3.03
2022-12-25T22:30:23.892Z,1.40
2022-12-25T22:32:52.314Z,2.83
2022-12-25T22:35:20.503Z,2.60
2022-12-25T22:37:48.302Z,2.50
2022-12-25T22:40:18.009Z,1.43
2022-12-25T22:42:45.302Z,2.40
2022-12-25T22:45:12.774Z,3.00
2022-12-25T22:47:40.420Z,2.03
2022-12-25T22:50:08.156Z,1.67
2022-12-25T22:52:36.221Z,1.90
2022-12-25T22:55:04.630Z,1.63
2022-12-25T22:57:31.759Z,1.57
2022-12-25T22:59:59.028Z,1.83
2022-12-25T23:02:26.641Z,1.80
2022-12-25T23:04:53.939Z,0.80
2022-12-25T23:07:21.132Z,1.60
2022-12-25T23:09:48.271Z,1.80
2022-12-25T23:12:33.787Z,2.30
2022-12-25T23:15:00.943Z,2.13
2022-12-25T23:17:46.764Z,2.00
2022-12-25T23:20:33.575Z,1.30
2022-12-25T23:23:19.502Z,1.40
2022-12-25T23:26:05.126Z,1.77
2022-12-25T23:28:50.706Z,1.77
2022-12-25T23:31:18.585Z,1.50
2022-12-25T23:33:45.852Z,2.20
2022-12-25T23:36:12.992Z,3.43
2022-12-25T23:38:40.201Z,3.00
2022-12-25T23:41:08.039Z,4.80
2022-12-25T23:43:35.246Z,3.60
2022-12-25T23:46:02.405Z,3.63
2022-12-25T23:48:29.647Z,3.27
2022-12-25T23:50:56.900Z,4.17
2022-12-25T23:53:24.566Z,3.87
2022-12-25T23:55:55.689Z,3.53
2022-12-25T23:58:26.752Z,2.53
